Wetterdaten: Mittwoch, 13.10.2010
Datum Zeit Temp. A. Feuchte A. Luftdruck Regen Wind Richtung Richtung Sonnenschein UV Solar Windben
13.10.2010 00:00 3,6 C 90 % 1017,7 hPa 0,0 mm 0,0 km/h (0 Bft) N-NO 17 0 min 0 UV-I 0 W/m 0,0 km/h (0 Bft)
13.10.2010 00:10 3,3 C 90 % 1017,5 hPa 0,0 mm 0,0 km/h (0 Bft) N-NO 17 0 min 0 UV-I 0 W/m 0,0 km/h (0 Bft)
13.10.2010 00:20 3,1 C 90 % 1017,4 hPa 0,0 mm 0,0 km/h (0 Bft) N-NO 17 0 min 0 UV-I 0 W/m 0,0 km/h (0 Bft)
13.10.2010 00:30 2,9 C 90 % 1017,4 hPa 0,0 mm 0,0 km/h (0 Bft) N-NO 17 0 min 0 UV-I 0 W/m 0,0 km/h (0 Bft)
13.10.2010 00:40 2,8 C 90 % 1017,2 hPa 0,0 mm 0,0 km/h (0 Bft) N 0 0 min 0 UV-I 0 W/m 0,0 km/h (0 Bft)
13.10.2010 00:50 2,7 C 90 % 1017,3 hPa 0,0 mm 0,0 km/h (0 Bft) N 0 0 min 0 UV-I 0 W/m 0,0 km/h (0 Bft)
13.10.2010 01:00 2,6 C 90 % 1017,3 hPa 0,0 mm 0,0 km/h (0 Bft) N 0 0 min 0 UV-I 0 W/m 0,0 km/h (0 Bft)
13.10.2010 01:10 2,4 C 91 % 1017,2 hPa 0,0 mm 0,0 km/h (0 Bft) N 0 0 min 0 UV-I 0 W/m 0,0 km/h (0 Bft)
13.10.2010 01:20 2,4 C 91 % 1017,3 hPa 0,0 mm 0,0 km/h (0 Bft) N 0 0 min 0 UV-I 0 W/m 0,0 km/h (0 Bft)
13.10.2010 01:30 2,4 C 91 % 1017,4 hPa 0,0 mm 0,0 km/h (0 Bft) N 0 0 min 0 UV-I 0 W/m 0,0 km/h (0 Bft)
13.10.2010 01:40 2,3 C 91 % 1017,3 hPa 0,0 mm 0,0 km/h (0 Bft) N 0 0 min 0 UV-I 0 W/m 0,0 km/h (0 Bft)
13.10.2010 01:50 2,2 C 91 % 1017,3 hPa 0,0 mm 0,0 km/h (0 Bft) N 0 0 min 0 UV-I 0 W/m 0,0 km/h (0 Bft)
13.10.2010 02:00 2,3 C 91 % 1017,3 hPa 0,0 mm 0,0 km/h (0 Bft) N 0 0 min 0 UV-I 0 W/m 0,0 km/h (0 Bft)
13.10.2010 02:10 2,4 C 91 % 1017,3 hPa 0,0 mm 0,0 km/h (0 Bft) N 0 0 min 0 UV-I 0 W/m 0,0 km/h (0 Bft)
13.10.2010 02:20 2,7 C 91 % 1017,3 hPa 0,0 mm 0,0 km/h (0 Bft) N 0 0 min 0 UV-I 0 W/m 0,0 km/h (0 Bft)
13.10.2010 02:30 3,0 C 92 % 1017,3 hPa 0,0 mm 0,0 km/h (0 Bft) N 0 0 min 0 UV-I 0 W/m 0,0 km/h (0 Bft)
13.10.2010 02:40 3,2 C 91 % 1017,3 hPa 0,0 mm 0,0 km/h (0 Bft) N-NO 22 0 min 0 UV-I 0 W/m 1,6 km/h (1 Bft)
13.10.2010 02:50 3,2 C 91 % 1017,2 hPa 0,0 mm 0,0 km/h (0 Bft) N-NO 22 0 min 0 UV-I 0 W/m 1,6 km/h (1 Bft)
13.10.2010 03:00 3,1 C 91 % 1017,2 hPa 0,0 mm 0,0 km/h (0 Bft) N 0 0 min 0 UV-I 0 W/m 0,0 km/h (0 Bft)
13.10.2010 03:10 2,9 C 91 % 1017,2 hPa 0,0 mm 0,0 km/h (0 Bft) N 0 0 min 0 UV-I 0 W/m 0,0 km/h (0 Bft)
13.10.2010 03:20 2,8 C 91 % 1017,2 hPa 0,0 mm 0,0 km/h (0 Bft) N 0 0 min 0 UV-I 0 W/m 0,0 km/h (0 Bft)
13.10.2010 03:30 2,6 C 91 % 1017,2 hPa 0,0 mm 0,0 km/h (0 Bft) N 0 0 min 0 UV-I 0 W/m 0,0 km/h (0 Bft)
13.10.2010 03:40 2,5 C 91 % 1017,1 hPa 0,0 mm 0,0 km/h (0 Bft) N 0 0 min 0 UV-I 0 W/m 0,0 km/h (0 Bft)
13.10.2010 03:50 2,4 C 91 % 1017,2 hPa 0,0 mm 0,0 km/h (0 Bft) N 0 0 min 0 UV-I 0 W/m 0,0 km/h (0 Bft)
13.10.2010 04:00 2,3 C 91 % 1017,2 hPa 0,0 mm 0,0 km/h (0 Bft) N 0 0 min 0 UV-I 0 W/m 0,0 km/h (0 Bft)
13.10.2010 04:10 2,1 C 91 % 1017,1 hPa 0,0 mm 0,0 km/h (0 Bft) N 0 0 min 0 UV-I 0 W/m 0,0 km/h (0 Bft)
13.10.2010 04:20 2,1 C 91 % 1017,1 hPa 0,0 mm 0,0 km/h (0 Bft) N 0 0 min 0 UV-I 0 W/m 0,0 km/h (0 Bft)
13.10.2010 04:30 2,2 C 92 % 1017,1 hPa 0,0 mm 0,0 km/h (0 Bft) N 0 0 min 0 UV-I 0 W/m 0,0 km/h (0 Bft)
13.10.2010 04:40 2,4 C 92 % 1017,0 hPa 0,0 mm 0,0 km/h (0 Bft) N-NO 22 0 min 0 UV-I 0 W/m 1,6 km/h (1 Bft)
13.10.2010 04:50 2,6 C 92 % 1017,0 hPa 0,0 mm 0,0 km/h (0 Bft) N 0 0 min 0 UV-I 0 W/m 0,0 km/h (0 Bft)
13.10.2010 05:00 2,7 C 92 % 1017,0 hPa 0,0 mm 0,0 km/h (0 Bft) N 0 0 min 0 UV-I 0 W/m 0,0 km/h (0 Bft)
13.10.2010 05:10 2,8 C 92 % 1017,0 hPa 0,0 mm 0,0 km/h (0 Bft) N 0 0 min 0 UV-I 0 W/m 0,0 km/h (0 Bft)
13.10.2010 05:20 2,9 C 92 % 1017,1 hPa 0,0 mm 0,0 km/h (0 Bft) N-NO 22 0 min 0 UV-I 0 W/m 1,6 km/h (1 Bft)
13.10.2010 05:30 3,1 C 92 % 1017,2 hPa 0,0 mm 0,0 km/h (0 Bft) N-NO 22 0 min 0 UV-I 0 W/m 1,6 km/h (1 Bft)
13.10.2010 05:40 3,3 C 92 % 1017,4 hPa 0,0 mm 0,0 km/h (0 Bft) N-NO 22 0 min 0 UV-I 0 W/m 1,6 km/h (1 Bft)
13.10.2010 05:50 3,4 C 92 % 1017,4 hPa 0,0 mm 0,0 km/h (0 Bft) N-NO 22 0 min 0 UV-I 0 W/m 1,6 km/h (1 Bft)
13.10.2010 06:00 3,6 C 92 % 1017,4 hPa 0,0 mm 0,0 km/h (0 Bft) N-NO 22 0 min 0 UV-I 0 W/m 1,6 km/h (1 Bft)
13.10.2010 06:10 3,7 C 92 % 1017,5 hPa 0,0 mm 0,0 km/h (0 Bft) N-NO 22 0 min 0 UV-I 0 W/m 1,6 km/h (1 Bft)
13.10.2010 06:20 3,8 C 92 % 1017,5 hPa 0,0 mm 0,0 km/h (0 Bft) N-NO 22 0 min 0 UV-I 0 W/m 1,6 km/h (1 Bft)
13.10.2010 06:30 3,9 C 92 % 1017,5 hPa 0,0 mm 0,0 km/h (0 Bft) N-NO 22 0 min 0 UV-I 0 W/m 1,6 km/h (1 Bft)
13.10.2010 06:40 4,1 C 92 % 1017,3 hPa 0,0 mm 0,0 km/h (0 Bft) N 0 0 min 0 UV-I 0 W/m 0,0 km/h (0 Bft)
13.10.2010 06:50 4,2 C 92 % 1017,0 hPa 0,0 mm 0,0 km/h (0 Bft) N-NO 22 0 min 0 UV-I 0 W/m 1,6 km/h (1 Bft)
13.10.2010 07:00 4,3 C 92 % 1017,1 hPa 0,0 mm 0,0 km/h (0 Bft) N 0 0 min 0 UV-I 0 W/m 0,0 km/h (0 Bft)
13.10.2010 07:10 4,4 C 92 % 1017,1 hPa 0,0 mm 0,0 km/h (0 Bft) N 0 0 min 0 UV-I 0 W/m 0,0 km/h (0 Bft)
13.10.2010 07:20 4,5 C 92 % 1017,1 hPa 0,0 mm 0,0 km/h (0 Bft) N 0 0 min 0 UV-I 0 W/m 0,0 km/h (0 Bft)
13.10.2010 07:30 4,6 C 92 % 1017,1 hPa 0,0 mm 0,0 km/h (0 Bft) N-NO 22 0 min 0 UV-I 0 W/m 1,6 km/h (1 Bft)
13.10.2010 07:40 4,7 C 92 % 1017,1 hPa 0,0 mm 0,0 km/h (0 Bft) N-NO 22 0 min 0 UV-I 0 W/m 3,2 km/h (1 Bft)
13.10.2010 07:50 4,8 C 92 % 1017,0 hPa 0,0 mm 0,0 km/h (0 Bft) N-NO 22 0 min 0 UV-I 0 W/m 1,6 km/h (1 Bft)
13.10.2010 08:00 4,9 C 92 % 1017,1 hPa 0,0 mm 0,0 km/h (0 Bft) N-NO 17 0 min 0 UV-I 1 W/m 0,0 km/h (0 Bft)
13.10.2010 08:10 5,0 C 92 % 1017,0 hPa 0,0 mm 0,0 km/h (0 Bft) N-NO 22 0 min 0 UV-I 11 W/m 1,6 km/h (1 Bft)
13.10.2010 08:20 5,0 C 91 % 1017,2 hPa 0,0 mm 0,0 km/h (0 Bft) N 0 0 min 0 UV-I 16 W/m 0,0 km/h (0 Bft)
13.10.2010 08:30 5,1 C 92 % 1017,4 hPa 0,0 mm 0,0 km/h (0 Bft) N 0 0 min 0 UV-I 25 W/m 0,0 km/h (0 Bft)
13.10.2010 08:40 5,2 C 91 % 1017,5 hPa 0,0 mm 0,0 km/h (0 Bft) N-NO 22 0 min 0 UV-I 33 W/m 1,6 km/h (1 Bft)
13.10.2010 08:50 5,4 C 91 % 1017,5 hPa 0,0 mm 0,0 km/h (0 Bft) N 0 0 min 0 UV-I 39 W/m 0,0 km/h (0 Bft)
13.10.2010 09:00 5,6 C 91 % 1017,6 hPa 0,0 mm 0,0 km/h (0 Bft) N 0 0 min 0 UV-I 42 W/m 0,0 km/h (0 Bft)
13.10.2010 09:10 5,8 C 91 % 1017,6 hPa 0,0 mm 0,0 km/h (0 Bft) N 0 0 min 0 UV-I 51 W/m 0,0 km/h (0 Bft)
13.10.2010 09:20 5,9 C 91 % 1018,0 hPa 0,0 mm 0,0 km/h (0 Bft) N-NO 22 0 min 0 UV-I 56 W/m 1,6 km/h (1 Bft)
13.10.2010 09:30 6,2 C 90 % 1018,0 hPa 0,0 mm 0,0 km/h (0 Bft) N-NO 22 0 min 0 UV-I 60 W/m 1,6 km/h (1 Bft)
13.10.2010 09:40 6,4 C 90 % 1017,7 hPa 0,0 mm 0,0 km/h (0 Bft) N-NO 22 0 min 0 UV-I 72 W/m 4,8 km/h (1 Bft)
13.10.2010 09:50 6,6 C 88 % 1017,9 hPa 0,0 mm 3,2 km/h (1 Bft) O-NO 67 0 min 1 UV-I 76 W/m 8,0 km/h (2 Bft)
13.10.2010 10:00 6,9 C 86 % 1017,8 hPa 0,0 mm 1,6 km/h (1 Bft) NO 45 0 min 1 UV-I 88 W/m 8,0 km/h (2 Bft)
13.10.2010 10:10 7,2 C 84 % 1017,9 hPa 0,0 mm 1,6 km/h (1 Bft) O-NO 67 0 min 1 UV-I 84 W/m 6,4 km/h (2 Bft)
13.10.2010 10:20 7,3 C 81 % 1017,9 hPa 0,0 mm 3,2 km/h (1 Bft) O 90 0 min 1 UV-I 98 W/m 9,7 km/h (2 Bft)
13.10.2010 10:30 7,5 C 79 % 1017,8 hPa 0,0 mm 3,2 km/h (1 Bft) O 90 0 min 1 UV-I 116 W/m 9,7 km/h (2 Bft)
13.10.2010 10:40 7,7 C 78 % 1018,0 hPa 0,0 mm 3,2 km/h (1 Bft) O 90 0 min 1 UV-I 127 W/m 14,5 km/h (3 Bft)
13.10.2010 10:50 7,8 C 76 % 1018,0 hPa 0,0 mm 3,2 km/h (1 Bft) O 90 0 min 1 UV-I 181 W/m 11,3 km/h (2 Bft)
13.10.2010 11:00 8,1 C 76 % 1017,9 hPa 0,0 mm 3,2 km/h (1 Bft) O-SO 112 0 min 1 UV-I 172 W/m 8,0 km/h (2 Bft)
13.10.2010 11:10 8,3 C 74 % 1017,9 hPa 0,0 mm 3,2 km/h (1 Bft) O-SO 112 0 min 1 UV-I 193 W/m 12,9 km/h (3 Bft)
13.10.2010 11:20 8,6 C 74 % 1017,9 hPa 0,0 mm 3,2 km/h (1 Bft) O 90 0 min 1 UV-I 237 W/m 11,3 km/h (2 Bft)
13.10.2010 11:30 8,7 C 72 % 1018,0 hPa 0,0 mm 3,2 km/h (1 Bft) O 90 0 min 1 UV-I 221 W/m 9,7 km/h (2 Bft)
13.10.2010 11:40 8,9 C 72 % 1017,9 hPa 0,0 mm 3,2 km/h (1 Bft) O 90 10 min 2 UV-I 279 W/m 9,7 km/h (2 Bft)
13.10.2010 11:50 9,1 C 74 % 1018,0 hPa 0,0 mm 4,8 km/h (1 Bft) O 90 10 min 2 UV-I 304 W/m 11,3 km/h (2 Bft)
13.10.2010 12:00 9,3 C 70 % 1018,0 hPa 0,0 mm 4,8 km/h (1 Bft) O 90 10 min 2 UV-I 362 W/m 14,5 km/h (3 Bft)
13.10.2010 12:10 9,4 C 70 % 1018,0 hPa 0,0 mm 6,4 km/h (2 Bft) O-SO 112 0 min 2 UV-I 257 W/m 16,1 km/h (3 Bft)
13.10.2010 12:20 8,8 C 72 % 1018,0 hPa 0,0 mm 3,2 km/h (1 Bft) O-SO 112 0 min 2 UV-I 209 W/m 9,7 km/h (2 Bft)
13.10.2010 12:30 8,9 C 71 % 1018,0 hPa 0,0 mm 3,2 km/h (1 Bft) O 90 10 min 2 UV-I 308 W/m 11,3 km/h (2 Bft)
13.10.2010 12:40 9,3 C 71 % 1018,0 hPa 0,0 mm 4,8 km/h (1 Bft) O-NO 67 10 min 2 UV-I 394 W/m 9,7 km/h (2 Bft)
13.10.2010 12:50 9,4 C 69 % 1017,9 hPa 0,0 mm 3,2 km/h (1 Bft) O-NO 67 10 min 3 UV-I 650 W/m 8,0 km/h (2 Bft)
13.10.2010 13:00 10,2 C 68 % 1017,8 hPa 0,0 mm 3,2 km/h (1 Bft) O-NO 67 10 min 3 UV-I 650 W/m 14,5 km/h (3 Bft)
13.10.2010 13:10 10,6 C 66 % 1017,8 hPa 0,0 mm 4,8 km/h (1 Bft) O 90 10 min 3 UV-I 533 W/m 14,5 km/h (3 Bft)
13.10.2010 13:20 10,8 C 64 % 1017,6 hPa 0,0 mm 4,8 km/h (1 Bft) O-NO 67 10 min 3 UV-I 541 W/m 9,7 km/h (2 Bft)
13.10.2010 13:30 11,0 C 65 % 1017,3 hPa 0,0 mm 4,8 km/h (1 Bft) O 90 10 min 3 UV-I 540 W/m 14,5 km/h (3 Bft)
13.10.2010 13:40 11,3 C 62 % 1017,3 hPa 0,0 mm 4,8 km/h (1 Bft) O 90 10 min 3 UV-I 527 W/m 16,1 km/h (3 Bft)
13.10.2010 13:50 11,6 C 63 % 1017,3 hPa 0,0 mm 3,2 km/h (1 Bft) O 90 10 min 3 UV-I 531 W/m 9,7 km/h (2 Bft)
13.10.2010 14:00 11,7 C 64 % 1017,4 hPa 0,0 mm 4,8 km/h (1 Bft) O 90 10 min 3 UV-I 520 W/m 11,3 km/h (2 Bft)
13.10.2010 14:10 11,8 C 61 % 1017,1 hPa 0,0 mm 3,2 km/h (1 Bft) O-NO 67 10 min 3 UV-I 524 W/m 11,3 km/h (2 Bft)
13.10.2010 14:20 11,9 C 62 % 1016,9 hPa 0,0 mm 4,8 km/h (1 Bft) O 90 10 min 2 UV-I 508 W/m 16,1 km/h (3 Bft)
13.10.2010 14:30 12,1 C 61 % 1016,8 hPa 0,0 mm 3,2 km/h (1 Bft) O 90 10 min 2 UV-I 503 W/m 8,0 km/h (2 Bft)
13.10.2010 14:40 12,0 C 62 % 1016,8 hPa 0,0 mm 3,2 km/h (1 Bft) O-SO 112 10 min 2 UV-I 492 W/m 11,3 km/h (2 Bft)
13.10.2010 14:50 12,3 C 60 % 1016,8 hPa 0,0 mm 3,2 km/h (1 Bft) SO 135 10 min 2 UV-I 487 W/m 9,7 km/h (2 Bft)
13.10.2010 15:00 12,6 C 60 % 1016,7 hPa 0,0 mm 3,2 km/h (1 Bft) O 90 10 min 2 UV-I 469 W/m 11,3 km/h (2 Bft)
13.10.2010 15:10 12,4 C 61 % 1016,6 hPa 0,0 mm 3,2 km/h (1 Bft) O 90 10 min 2 UV-I 452 W/m 9,7 km/h (2 Bft)
13.10.2010 15:20 12,7 C 60 % 1016,6 hPa 0,0 mm 3,2 km/h (1 Bft) O 90 10 min 2 UV-I 439 W/m 9,7 km/h (2 Bft)
13.10.2010 15:30 12,4 C 61 % 1016,4 hPa 0,0 mm 3,2 km/h (1 Bft) O-SO 112 10 min 2 UV-I 424 W/m 8,0 km/h (2 Bft)
13.10.2010 15:40 12,3 C 60 % 1016,4 hPa 0,0 mm 4,8 km/h (1 Bft) O 90 10 min 2 UV-I 403 W/m 11,3 km/h (2 Bft)
13.10.2010 15:50 12,1 C 61 % 1016,2 hPa 0,0 mm 1,6 km/h (1 Bft) O-NO 67 10 min 1 UV-I 383 W/m 6,4 km/h (2 Bft)
13.10.2010 16:00 12,0 C 62 % 1016,1 hPa 0,0 mm 2,2 km/h (1 Bft) O-SO 102 10 min 1 UV-I 286 W/m 6,4 km/h (2 Bft)
13.10.2010 16:10 12,1 C 62 % 1016,1 hPa 0,0 mm 1,6 km/h (1 Bft) O 90 10 min 1 UV-I 320 W/m 11,3 km/h (2 Bft)
13.10.2010 16:20 12,2 C 62 % 1016,2 hPa 0,0 mm 3,2 km/h (1 Bft) O 90 10 min 1 UV-I 318 W/m 9,7 km/h (2 Bft)
13.10.2010 16:30 12,2 C 61 % 1016,1 hPa 0,0 mm 3,2 km/h (1 Bft) O 90 10 min 1 UV-I 297 W/m 9,7 km/h (2 Bft)
13.10.2010 16:40 12,2 C 62 % 1016,1 hPa 0,0 mm 1,6 km/h (1 Bft) O 90 10 min 1 UV-I 269 W/m 4,8 km/h (1 Bft)
13.10.2010 16:50 12,2 C 61 % 1016,2 hPa 0,0 mm 1,6 km/h (1 Bft) O 90 10 min 1 UV-I 246 W/m 4,8 km/h (1 Bft)
13.10.2010 17:00 12,2 C 63 % 1016,4 hPa 0,0 mm 1,6 km/h (1 Bft) O 90 10 min 1 UV-I 221 W/m 6,4 km/h (2 Bft)
13.10.2010 17:10 12,2 C 61 % 1016,1 hPa 0,0 mm 1,6 km/h (1 Bft) O 90 10 min 1 UV-I 197 W/m 6,4 km/h (2 Bft)
13.10.2010 17:20 12,0 C 63 % 1016,0 hPa 0,0 mm 1,6 km/h (1 Bft) O 90 10 min 1 UV-I 172 W/m 6,4 km/h (2 Bft)
13.10.2010 17:30 11,9 C 64 % 1016,1 hPa 0,0 mm 1,6 km/h (1 Bft) O 90 10 min 1 UV-I 149 W/m 4,8 km/h (1 Bft)
13.10.2010 17:40 11,5 C 65 % 1016,2 hPa 0,0 mm 0,0 km/h (0 Bft) O-NO 67 10 min 0 UV-I 123 W/m 4,8 km/h (1 Bft)
13.10.2010 17:50 11,3 C 66 % 1016,2 hPa 0,0 mm 1,6 km/h (1 Bft) O-NO 67 10 min 0 UV-I 97 W/m 4,8 km/h (1 Bft)
13.10.2010 18:00 10,9 C 67 % 1016,2 hPa 0,0 mm 0,0 km/h (0 Bft) O-NO 67 10 min 0 UV-I 53 W/m 4,8 km/h (1 Bft)
13.10.2010 18:10 10,4 C 68 % 1016,1 hPa 0,0 mm 0,0 km/h (0 Bft) O-NO 67 0 min 0 UV-I 25 W/m 4,8 km/h (1 Bft)
13.10.2010 18:20 10,2 C 70 % 1016,1 hPa 0,0 mm 0,0 km/h (0 Bft) O-NO 67 10 min 0 UV-I 18 W/m 1,6 km/h (1 Bft)
13.10.2010 18:30 9,8 C 71 % 1016,2 hPa 0,0 mm 0,0 km/h (0 Bft) O-NO 67 0 min 0 UV-I 11 W/m 1,6 km/h (1 Bft)
13.10.2010 18:40 9,4 C 73 % 1016,1 hPa 0,0 mm 0,0 km/h (0 Bft) O-NO 67 0 min 0 UV-I 5 W/m 1,6 km/h (1 Bft)
13.10.2010 18:50 8,9 C 74 % 1016,2 hPa 0,0 mm 0,0 km/h (0 Bft) N 0 0 min 0 UV-I 0 W/m 0,0 km/h (0 Bft)
13.10.2010 19:00 8,6 C 76 % 1016,5 hPa 0,0 mm 0,0 km/h (0 Bft) N 0 0 min 0 UV-I 0 W/m 0,0 km/h (0 Bft)
13.10.2010 19:10 8,1 C 79 % 1016,4 hPa 0,0 mm 0,0 km/h (0 Bft) N 0 0 min 0 UV-I 0 W/m 0,0 km/h (0 Bft)
13.10.2010 19:20 7,5 C 81 % 1016,5 hPa 0,0 mm 0,0 km/h (0 Bft) N 0 0 min 0 UV-I 0 W/m 0,0 km/h (0 Bft)
13.10.2010 19:30 7,2 C 82 % 1016,6 hPa 0,0 mm 0,0 km/h (0 Bft) N 0 0 min 0 UV-I 0 W/m 0,0 km/h (0 Bft)
13.10.2010 19:40 6,9 C 83 % 1016,7 hPa 0,0 mm 0,0 km/h (0 Bft) O-NO 64 0 min 0 UV-I 0 W/m 0,0 km/h (0 Bft)
13.10.2010 19:50 6,8 C 83 % 1016,8 hPa 0,0 mm 0,0 km/h (0 Bft) O-NO 64 0 min 0 UV-I 0 W/m 1,6 km/h (1 Bft)
13.10.2010 20:00 6,7 C 83 % 1016,8 hPa 0,0 mm 0,0 km/h (0 Bft) O-NO 64 0 min 0 UV-I 0 W/m 1,6 km/h (1 Bft)
13.10.2010 20:10 6,4 C 83 % 1016,9 hPa 0,0 mm 0,0 km/h (0 Bft) O-NO 64 0 min 0 UV-I 0 W/m 1,6 km/h (1 Bft)
13.10.2010 20:20 6,2 C 84 % 1016,9 hPa 0,0 mm 0,0 km/h (0 Bft) O-NO 64 0 min 0 UV-I 0 W/m 0,0 km/h (0 Bft)
13.10.2010 20:30 6,0 C 84 % 1016,9 hPa 0,0 mm 0,0 km/h (0 Bft) O-NO 64 0 min 0 UV-I 0 W/m 0,0 km/h (0 Bft)
13.10.2010 20:40 5,7 C 85 % 1017,0 hPa 0,0 mm 0,0 km/h (0 Bft) O-NO 64 0 min 0 UV-I 0 W/m 0,0 km/h (0 Bft)
13.10.2010 20:50 5,5 C 86 % 1016,9 hPa 0,0 mm 0,0 km/h (0 Bft) O-NO 64 0 min 0 UV-I 0 W/m 0,0 km/h (0 Bft)
13.10.2010 21:00 5,2 C 86 % 1016,8 hPa 0,0 mm 0,0 km/h (0 Bft) O-NO 64 0 min 0 UV-I 0 W/m 0,0 km/h (0 Bft)
13.10.2010 21:10 5,1 C 87 % 1016,7 hPa 0,0 mm 0,0 km/h (0 Bft) O-NO 64 0 min 0 UV-I 0 W/m 1,6 km/h (1 Bft)
13.10.2010 21:20 5,0 C 87 % 1016,7 hPa 0,0 mm 0,0 km/h (0 Bft) O-NO 64 0 min 0 UV-I 0 W/m 0,0 km/h (0 Bft)
13.10.2010 21:30 4,7 C 87 % 1016,6 hPa 0,0 mm 0,0 km/h (0 Bft) O-NO 64 0 min 0 UV-I 0 W/m 1,6 km/h (1 Bft)
13.10.2010 21:40 4,6 C 88 % 1016,6 hPa 0,0 mm 0,0 km/h (0 Bft) O-NO 64 0 min 0 UV-I 0 W/m 1,6 km/h (1 Bft)
13.10.2010 21:50 4,4 C 88 % 1016,7 hPa 0,0 mm 0,0 km/h (0 Bft) O-NO 64 0 min 0 UV-I 0 W/m 0,0 km/h (0 Bft)
13.10.2010 22:00 4,1 C 88 % 1016,7 hPa 0,0 mm 0,0 km/h (0 Bft) O-NO 64 0 min 0 UV-I 0 W/m 0,0 km/h (0 Bft)
13.10.2010 22:10 4,1 C 89 % 1016,7 hPa 0,0 mm 0,0 km/h (0 Bft) O-NO 64 0 min 0 UV-I 0 W/m 0,0 km/h (0 Bft)
13.10.2010 22:20 3,9 C 89 % 1016,7 hPa 0,0 mm 0,0 km/h (0 Bft) O-NO 64 0 min 0 UV-I 0 W/m 0,0 km/h (0 Bft)
13.10.2010 22:30 3,8 C 89 % 1016,8 hPa 0,0 mm 0,0 km/h (0 Bft) O-NO 64 0 min 0 UV-I 0 W/m 0,0 km/h (0 Bft)
13.10.2010 22:40 3,7 C 89 % 1016,8 hPa 0,0 mm 0,0 km/h (0 Bft) O-NO 64 0 min 0 UV-I 0 W/m 0,0 km/h (0 Bft)
13.10.2010 22:50 3,6 C 89 % 1016,8 hPa 0,0 mm 0,0 km/h (0 Bft) N 0 0 min 0 UV-I 0 W/m 0,0 km/h (0 Bft)
13.10.2010 23:00 3,4 C 89 % 1016,8 hPa 0,0 mm 0,0 km/h (0 Bft) N 0 0 min 0 UV-I 0 W/m 0,0 km/h (0 Bft)
13.10.2010 23:10 3,2 C 89 % 1016,7 hPa 0,0 mm 0,0 km/h (0 Bft) N 0 0 min 0 UV-I 0 W/m 0,0 km/h (0 Bft)
13.10.2010 23:20 3,1 C 90 % 1016,6 hPa 0,0 mm 0,0 km/h (0 Bft) N 0 0 min 0 UV-I 0 W/m 0,0 km/h (0 Bft)
13.10.2010 23:30 3,1 C 89 % 1016,6 hPa 0,0 mm 0,0 km/h (0 Bft) N 0 0 min 0 UV-I 0 W/m 0,0 km/h (0 Bft)
13.10.2010 23:40 2,9 C 90 % 1016,5 hPa 0,0 mm 0,0 km/h (0 Bft) N 0 0 min 0 UV-I 0 W/m 0,0 km/h (0 Bft)
13.10.2010 23:50 2,8 C 90 % 1016,5 hPa 0,0 mm 0,0 km/h (0 Bft) N 0 0 min 0 UV-I 0 W/m 0,0 km/h (0 Bft)
_ Min-Zeit 04:10 14:50 17:20 - 00:00 - - - - - 00:00
Minimum _ 2,1 C 60 % 1016,0 hPa - 0,0 km/h (0 Bft) - - - - - 0,0 km/h (0 Bft)
_ Max-Zeit 15:20 02:30 09:20 00:00 12:10 - - 11:40 13:00 12:50 12:10
Maximum _ 12,7 C 92 % 1018,0 hPa 0,0 mm 6,4 km/h
O-SO (2 Bft)
- - 10 min 3 UV-I 650 W/m 16,1 km/h
O-SO (3 Bft)
Durchschnitt _ 6,5 C 81 % 1017,1 hPa #0,0 mm 1,1 km/h (0 Bft) O - #6:20 h 2 UV-I 254 W/m 3,8 km/h (1 Bft)